Time;durP1;ratioP1;P1;durP2;ratioP2;P2;SDS_P1;SDS_P2;PMS_P1;PMS_P2;Temp;Humidity;BMP_temperature;BMP_pressure;BME280_temperature;BME280_humidity;BME280_pressure;Samples;Min_cycle;Max_cycle;Signal;HPM_P1;HPM_P2
2023/06/24 00:00:39;;;;;;;6.05;3.20;;;;;;;;;;5155841;27;20075;-59
2023/06/24 00:03:07;;;;;;;4.57;2.88;;;;;;;;;;5155613;27;20658;-60
2023/06/24 00:05:33;;;;;;;4.35;3.17;;;;;;;;;;5155824;27;20038;-59
2023/06/24 00:08:02;;;;;;;5.97;3.22;;;;;;;;;;5155536;27;20112;-59
2023/06/24 00:10:28;;;;;;;7.18;3.30;;;;;;;;;;5155492;27;20054;-60
2023/06/24 00:12:53;;;;;;;4.85;3.10;;;;;;;;;;5155619;27;20027;-59
2023/06/24 00:15:19;;;;;;;7.07;3.15;;;;;;;;;;5155498;27;20068;-60
2023/06/24 00:17:44;;;;;;;6.15;3.17;;;;;;;;;;5155199;27;20031;-59
2023/06/24 00:20:14;;;;;;;8.60;3.28;;;;;;;;;;5155471;27;20019;-60
2023/06/24 00:22:43;;;;;;;7.10;3.10;;;;;;;;;;5155092;27;20485;-59
2023/06/24 00:25:09;;;;;;;5.47;2.40;;;;;;;;;;5155356;27;20047;-59
2023/06/24 00:27:35;;;;;;;4.22;2.78;;;;;;;;;;5154968;27;20023;-60
2023/06/24 00:30:00;;;;;;;7.68;3.17;;;;;;;;;;5155165;27;20023;-59
2023/06/24 00:32:26;;;;;;;5.00;2.92;;;;;;;;;;5155233;27;20054;-60
2023/06/24 00:34:51;;;;;;;4.93;3.00;;;;;;;;;;5154911;27;20466;-59
2023/06/24 00:37:17;;;;;;;4.93;2.97;;;;;;;;;;5154797;27;20026;-59
2023/06/24 00:39:42;;;;;;;6.18;3.35;;;;;;;;;;5154582;27;20030;-59
2023/06/24 00:42:08;;;;;;;6.72;3.30;;;;;;;;;;5154761;27;20033;-59
2023/06/24 00:44:34;;;;;;;7.20;3.50;;;;;;;;;;5154956;27;20042;-59
2023/06/24 00:46:59;;;;;;;4.32;3.00;;;;;;;;;;5154739;27;20101;-59
2023/06/24 00:49:25;;;;;;;5.53;3.03;;;;;;;;;;5154526;27;20042;-59
2023/06/24 00:51:50;;;;;;;4.07;3.08;;;;;;;;;;5154560;27;20023;-59
2023/06/24 00:54:19;;;;;;;4.93;2.90;;;;;;;;;;5154804;27;20043;-60
2023/06/24 00:56:45;;;;;;;4.90;3.00;;;;;;;;;;5154730;27;20022;-60
2023/06/24 00:59:14;;;;;;;5.63;3.42;;;;;;;;;;5154398;27;20030;-59
2023/06/24 01:01:40;;;;;;;5.80;3.15;;;;;;;;;;5135930;27;20022;-60
2023/06/24 01:04:07;;;;;;;4.07;2.97;;;;;;;;;;5154415;27;20370;-59
2023/06/24 01:06:35;;;;;;;3.50;2.85;;;;;;;;;;5154607;27;20367;-59
2023/06/24 01:09:02;;;;;;;3.30;2.78;;;;;;;;;;5154526;27;20360;-59
2023/06/24 01:11:29;;;;;;;3.90;3.20;;;;;;;;;;5154546;27;20035;-59
2023/06/24 01:13:55;;;;;;;4.93;3.10;;;;;;;;;;5154327;27;20050;-59
2023/06/24 01:16:46;;;;;;;4.72;3.13;;;;;;;;;;5154289;27;20031;-59
2023/06/24 01:19:44;;;;;;;6.90;3.40;;;;;;;;;;5154443;27;20023;-59
2023/06/24 01:22:31;;;;;;;4.15;3.17;;;;;;;;;;5154161;27;20614;-59
2023/06/24 01:24:59;;;;;;;5.40;2.95;;;;;;;;;;5154163;27;20030;-60
2023/06/24 01:27:52;;;;;;;4.82;2.80;;;;;;;;;;5154089;27;20026;-59
2023/06/24 01:30:23;;;;;;;5.40;3.25;;;;;;;;;;5154302;27;20027;-59
2023/06/24 01:33:04;;;;;;;4.78;3.00;;;;;;;;;;5154322;27;20109;-59
2023/06/24 01:35:32;;;;;;;4.32;3.10;;;;;;;;;;5135597;27;20023;-59
2023/06/24 01:38:07;;;;;;;7.55;3.33;;;;;;;;;;5154211;27;20378;-59
2023/06/24 01:40:42;;;;;;;4.65;3.00;;;;;;;;;;5153970;27;20038;-59
2023/06/24 01:43:09;;;;;;;4.47;3.30;;;;;;;;;;5154035;27;20029;-59
2023/06/24 01:45:47;;;;;;;3.60;3.00;;;;;;;;;;5153985;27;20271;-59
2023/06/24 01:48:16;;;;;;;3.50;3.13;;;;;;;;;;5153901;27;20025;-60
2023/06/24 01:50:49;;;;;;;7.35;3.50;;;;;;;;;;5153738;27;20034;-59
2023/06/24 01:53:16;;;;;;;5.38;3.15;;;;;;;;;;5135491;27;20035;-60
2023/06/24 01:55:43;;;;;;;3.67;2.88;;;;;;;;;;5154098;27;20105;-59
2023/06/24 01:58:11;;;;;;;4.78;2.83;;;;;;;;;;5153806;27;20019;-60
2023/06/24 02:00:37;;;;;;;4.47;2.97;;;;;;;;;;5153813;27;20551;-59
2023/06/24 02:03:06;;;;;;;5.68;2.67;;;;;;;;;;5153759;27;20026;-59
2023/06/24 02:05:33;;;;;;;3.75;2.90;;;;;;;;;;5153751;27;20023;-62
2023/06/24 02:08:01;;;;;;;4.88;3.33;;;;;;;;;;5153701;27;20061;-59
2023/06/24 02:10:27;;;;;;;3.58;3.10;;;;;;;;;;5153845;27;20045;-59
2023/06/24 02:12:55;;;;;;;3.50;2.90;;;;;;;;;;5153602;27;20517;-60
2023/06/24 02:15:22;;;;;;;5.85;3.00;;;;;;;;;;5153659;27;20023;-60
2023/06/24 02:17:56;;;;;;;3.33;3.03;;;;;;;;;;5156671;27;20102;-59
2023/06/24 02:20:27;;;;;;;5.53;2.90;;;;;;;;;;5157548;27;20475;-59
2023/06/24 02:22:54;;;;;;;5.75;2.90;;;;;;;;;;5157497;27;20033;-59
2023/06/24 02:25:20;;;;;;;4.68;2.72;;;;;;;;;;5157549;27;20026;-59
2023/06/24 02:27:46;;;;;;;3.85;3.10;;;;;;;;;;5157403;27;20075;-58
2023/06/24 02:30:13;;;;;;;3.83;3.03;;;;;;;;;;5157283;27;20034;-58
2023/06/24 02:32:38;;;;;;;4.78;3.10;;;;;;;;;;5157344;27;20490;-59
2023/06/24 02:35:05;;;;;;;3.53;2.90;;;;;;;;;;5157558;27;20023;-59
2023/06/24 02:37:30;;;;;;;3.83;2.85;;;;;;;;;;5157321;27;20026;-59
2023/06/24 02:39:57;;;;;;;13.73;3.20;;;;;;;;;;5157207;27;20042;-59
2023/06/24 02:42:23;;;;;;;4.53;2.80;;;;;;;;;;5157144;27;20027;-59
2023/06/24 02:44:48;;;;;;;4.97;2.90;;;;;;;;;;5157357;27;20064;-59
2023/06/24 02:47:16;;;;;;;9.43;3.30;;;;;;;;;;5157600;27;20023;-59
2023/06/24 02:49:46;;;;;;;4.40;2.92;;;;;;;;;;5157157;27;20118;-59
2023/06/24 02:52:12;;;;;;;4.47;2.90;;;;;;;;;;5156890;27;20505;-59
2023/06/24 02:54:39;;;;;;;3.90;3.10;;;;;;;;;;5156820;27;20062;-58
2023/06/24 02:57:06;;;;;;;4.90;3.08;;;;;;;;;;5156921;27;20391;-59
2023/06/24 02:59:32;;;;;;;4.78;3.20;;;;;;;;;;5157037;27;20027;-59
2023/06/24 03:01:58;;;;;;;3.42;2.78;;;;;;;;;;5156685;27;20420;-58
2023/06/24 03:04:24;;;;;;;4.28;3.03;;;;;;;;;;5156759;27;20027;-62
2023/06/24 03:06:50;;;;;;;3.35;2.70;;;;;;;;;;5138285;27;20463;-58
2023/06/24 03:09:17;;;;;;;5.28;2.88;;;;;;;;;;5157072;27;20019;-59
2023/06/24 03:11:43;;;;;;;6.40;2.95;;;;;;;;;;5156860;27;20023;-59
2023/06/24 03:14:10;;;;;;;4.72;3.08;;;;;;;;;;5156534;27;20046;-62
2023/06/24 03:16:38;;;;;;;3.85;3.10;;;;;;;;;;5156432;27;20027;-59
2023/06/24 03:19:04;;;;;;;3.58;3.05;;;;;;;;;;5156698;27;20056;-63
2023/06/24 03:21:29;;;;;;;3.13;2.80;;;;;;;;;;5156355;27;20080;-61
2023/06/24 03:23:55;;;;;;;7.68;3.33;;;;;;;;;;5156316;27;20022;-59
2023/06/24 03:26:21;;;;;;;3.25;2.78;;;;;;;;;;5156215;27;20030;-59
2023/06/24 03:28:46;;;;;;;3.33;2.85;;;;;;;;;;5156318;27;20057;-59
2023/06/24 03:31:15;;;;;;;3.92;2.85;;;;;;;;;;5156144;27;20467;-60
2023/06/24 03:33:44;;;;;;;3.42;3.00;;;;;;;;;;5156033;27;20033;-59
2023/06/24 03:36:10;;;;;;;5.30;2.90;;;;;;;;;;5156110;27;20099;-60
2023/06/24 03:38:36;;;;;;;4.97;3.10;;;;;;;;;;5156334;27;20054;-60
2023/06/24 03:41:01;;;;;;;3.47;2.88;;;;;;;;;;5155720;27;20510;-59
2023/06/24 03:43:27;;;;;;;5.25;2.80;;;;;;;;;;5155983;27;20063;-59
2023/06/24 03:45:52;;;;;;;4.47;2.90;;;;;;;;;;5156148;27;20010;-58
2023/06/24 03:48:18;;;;;;;4.20;2.70;;;;;;;;;;5155775;27;20470;-59
2023/06/24 03:50:43;;;;;;;3.25;2.60;;;;;;;;;;5155982;27;20045;-58
2023/06/24 03:53:09;;;;;;;3.33;2.80;;;;;;;;;;5155752;27;20360;-58
2023/06/24 03:55:34;;;;;;;4.90;3.22;;;;;;;;;;5155694;27;20023;-58
2023/06/24 03:58:00;;;;;;;4.20;2.88;;;;;;;;;;5155994;27;20026;-58
2023/06/24 04:00:26;;;;;;;3.22;2.60;;;;;;;;;;5155893;27;20378;-58
2023/06/24 04:02:53;;;;;;;5.55;3.20;;;;;;;;;;5155841;27;20027;-58
2023/06/24 04:05:20;;;;;;;3.42;2.80;;;;;;;;;;5155430;27;20101;-64
2023/06/24 04:07:50;;;;;;;4.20;2.95;;;;;;;;;;5155327;27;20019;-59
2023/06/24 04:10:17;;;;;;;4.47;2.83;;;;;;;;;;5155644;27;20107;-59
2023/06/24 04:12:43;;;;;;;3.08;2.78;;;;;;;;;;5155267;27;20378;-59
2023/06/24 04:15:09;;;;;;;2.60;2.40;;;;;;;;;;5155194;27;20022;-59
2023/06/24 04:17:35;;;;;;;5.22;2.80;;;;;;;;;;5155426;27;20029;-59
2023/06/24 04:20:03;;;;;;;4.78;2.80;;;;;;;;;;5155106;27;20217;-60
2023/06/24 04:22:29;;;;;;;3.15;2.60;;;;;;;;;;5155392;27;20087;-59
2023/06/24 04:24:55;;;;;;;3.33;2.83;;;;;;;;;;5155087;27;20471;-59
2023/06/24 04:27:20;;;;;;;4.93;3.13;;;;;;;;;;5154919;27;20568;-59
2023/06/24 04:29:46;;;;;;;4.70;2.90;;;;;;;;;;5154938;27;20022;-59
2023/06/24 04:32:12;;;;;;;3.08;2.78;;;;;;;;;;5154903;27;20031;-63
2023/06/24 04:34:37;;;;;;;4.15;2.80;;;;;;;;;;5154858;27;20025;-59
2023/06/24 04:37:03;;;;;;;3.78;2.70;;;;;;;;;;5154861;27;20026;-59
2023/06/24 04:39:28;;;;;;;2.78;2.58;;;;;;;;;;5154034;27;20409;-60
2023/06/24 04:41:54;;;;;;;6.07;2.97;;;;;;;;;;5154843;27;20022;-59
2023/06/24 04:44:20;;;;;;;3.85;2.75;;;;;;;;;;5154664;27;20025;-59
2023/06/24 04:46:46;;;;;;;3.80;2.70;;;;;;;;;;5154559;27;20030;-59
2023/06/24 04:49:11;;;;;;;2.88;2.60;;;;;;;;;;5154549;27;20389;-59
2023/06/24 04:51:37;;;;;;;3.08;2.78;;;;;;;;;;5154505;27;20118;-60
2023/06/24 04:54:03;;;;;;;3.78;2.78;;;;;;;;;;5154585;27;20311;-59
2023/06/24 04:56:29;;;;;;;7.15;2.90;;;;;;;;;;5154760;27;20031;-59
2023/06/24 04:58:55;;;;;;;3.22;2.50;;;;;;;;;;5154181;27;20022;-65
2023/06/24 05:01:21;;;;;;;4.82;2.72;;;;;;;;;;5154353;27;20027;-60
2023/06/24 05:03:47;;;;;;;3.53;2.97;;;;;;;;;;5154487;27;20060;-60
2023/06/24 05:06:13;;;;;;;3.13;2.75;;;;;;;;;;5154620;27;20046;-60
2023/06/24 05:08:38;;;;;;;2.70;2.50;;;;;;;;;;5154619;27;20437;-60
2023/06/24 05:11:05;;;;;;;4.18;2.70;;;;;;;;;;5154158;27;20111;-60
2023/06/24 05:13:30;;;;;;;7.43;3.40;;;;;;;;;;5154163;27;20069;-60
2023/06/24 05:15:56;;;;;;;5.13;3.20;;;;;;;;;;5151005;27;20054;-62
2023/06/24 05:18:22;;;;;;;2.97;2.67;;;;;;;;;;5147243;27;20041;-63
2023/06/24 05:20:47;;;;;;;3.15;2.75;;;;;;;;;;5147408;27;20019;-61
2023/06/24 05:23:13;;;;;;;5.18;2.60;;;;;;;;;;5142583;27;20531;-67
2023/06/24 05:25:38;;;;;;;3.38;2.83;;;;;;;;;;5138446;27;20035;-60
2023/06/24 05:28:04;;;;;;;2.75;2.55;;;;;;;;;;5142981;27;20489;-60
2023/06/24 05:30:30;;;;;;;5.20;2.90;;;;;;;;;;5153497;27;20039;-60
2023/06/24 05:32:55;;;;;;;8.10;3.05;;;;;;;;;;5151002;27;20052;-60
2023/06/24 05:35:21;;;;;;;2.88;2.55;;;;;;;;;;5149541;27;20064;-64
2023/06/24 05:37:47;;;;;;;3.85;2.75;;;;;;;;;;5153874;27;20162;-60
2023/06/24 05:40:13;;;;;;;3.63;2.40;;;;;;;;;;5149688;27;20053;-60
2023/06/24 05:42:39;;;;;;;2.83;2.58;;;;;;;;;;5150859;27;20015;-58
2023/06/24 05:45:06;;;;;;;3.15;2.80;;;;;;;;;;5153798;27;20026;-63
2023/06/24 05:47:32;;;;;;;4.00;3.08;;;;;;;;;;5153895;27;20038;-64
2023/06/24 05:49:58;;;;;;;2.90;2.67;;;;;;;;;;5153565;27;20021;-59
2023/06/24 05:52:24;;;;;;;3.55;3.08;;;;;;;;;;5156004;27;20106;-60
2023/06/24 05:54:50;;;;;;;4.00;2.58;;;;;;;;;;5157853;27;20031;-60
2023/06/24 05:57:16;;;;;;;2.92;2.63;;;;;;;;;;5156986;27;20038;-60
2023/06/24 05:59:41;;;;;;;3.28;2.80;;;;;;;;;;5156181;27;20085;-60
2023/06/24 06:02:07;;;;;;;5.28;2.60;;;;;;;;;;5156381;27;20148;-60
2023/06/24 06:04:33;;;;;;;3.00;2.72;;;;;;;;;;5156224;27;20023;-60
2023/06/24 06:06:59;;;;;;;2.85;2.63;;;;;;;;;;5155979;27;20062;-60
2023/06/24 06:09:24;;;;;;;3.20;2.90;;;;;;;;;;5155998;27;20018;-59
2023/06/24 06:11:50;;;;;;;2.90;2.60;;;;;;;;;;5155935;27;20065;-60
2023/06/24 06:14:15;;;;;;;3.10;2.80;;;;;;;;;;5155506;27;20026;-60
2023/06/24 06:16:41;;;;;;;3.80;2.70;;;;;;;;;;5155328;27;20038;-60
2023/06/24 06:19:06;;;;;;;3.22;2.80;;;;;;;;;;5155428;27;20041;-60
2023/06/24 06:21:32;;;;;;;4.03;2.90;;;;;;;;;;5155764;27;20037;-60
2023/06/24 06:23:57;;;;;;;4.78;2.67;;;;;;;;;;5155511;27;20360;-60
2023/06/24 06:26:23;;;;;;;2.80;2.60;;;;;;;;;;5153650;27;20029;-63
2023/06/24 06:28:49;;;;;;;5.78;2.25;;;;;;;;;;5134921;27;20365;-60
2023/06/24 06:31:16;;;;;;;4.78;2.80;;;;;;;;;;5134365;27;20116;-60
2023/06/24 06:33:42;;;;;;;3.17;2.88;;;;;;;;;;5134682;27;20116;-60
2023/06/24 06:36:07;;;;;;;3.30;2.88;;;;;;;;;;5144711;27;20026;-62
2023/06/24 06:38:33;;;;;;;3.00;2.50;;;;;;;;;;5155122;27;20029;-61
2023/06/24 06:40:59;;;;;;;7.32;2.83;;;;;;;;;;5154878;27;20046;-61
2023/06/24 06:43:25;;;;;;;2.78;2.58;;;;;;;;;;5154866;27;20034;-62
2023/06/24 06:45:50;;;;;;;4.90;2.40;;;;;;;;;;5154698;27;20019;-59
2023/06/24 06:48:16;;;;;;;3.50;2.50;;;;;;;;;;5154895;27;20051;-59
2023/06/24 06:50:41;;;;;;;11.43;2.60;;;;;;;;;;5154680;27;20478;-59
2023/06/24 06:53:07;;;;;;;5.68;2.53;;;;;;;;;;5154676;27;20079;-62
2023/06/24 06:55:33;;;;;;;3.05;2.47;;;;;;;;;;5154732;27;20027;-63
2023/06/24 06:57:58;;;;;;;5.03;2.75;;;;;;;;;;5154635;27;20067;-59
2023/06/24 07:00:24;;;;;;;18.85;3.75;;;;;;;;;;5154444;27;20056;-58
2023/06/24 07:02:50;;;;;;;7.75;2.55;;;;;;;;;;5154049;27;20030;-59
2023/06/24 07:05:16;;;;;;;3.22;2.55;;;;;;;;;;5154398;27;20023;-63
2023/06/24 07:07:43;;;;;;;7.60;2.58;;;;;;;;;;5154350;27;20035;-59
2023/06/24 07:10:09;;;;;;;7.70;2.60;;;;;;;;;;5154219;27;20063;-58
2023/06/24 07:12:34;;;;;;;6.90;2.40;;;;;;;;;;5154096;27;20105;-59
2023/06/24 07:15:00;;;;;;;6.63;2.63;;;;;;;;;;5154086;27;20023;-59
2023/06/24 07:17:26;;;;;;;3.47;2.10;;;;;;;;;;5154656;27;20045;-57
2023/06/24 07:19:51;;;;;;;6.50;2.63;;;;;;;;;;5154705;27;20479;-59
2023/06/24 07:22:17;;;;;;;7.45;2.90;;;;;;;;;;5154223;27;20475;-65
2023/06/24 07:24:42;;;;;;;11.57;3.03;;;;;;;;;;5151111;27;20045;-58
2023/06/24 07:27:08;;;;;;;9.85;2.95;;;;;;;;;;5142362;27;20063;-58
2023/06/24 07:29:33;;;;;;;7.45;3.00;;;;;;;;;;5139330;27;20035;-58
2023/06/24 07:31:59;;;;;;;8.48;2.83;;;;;;;;;;5154610;27;20022;-58
2023/06/24 07:34:25;;;;;;;3.72;2.60;;;;;;;;;;5154289;27;20117;-57
2023/06/24 07:36:50;;;;;;;5.68;2.35;;;;;;;;;;5154304;27;20033;-66
2023/06/24 07:39:17;;;;;;;7.57;2.95;;;;;;;;;;5154520;27;20026;-59
2023/06/24 07:41:42;;;;;;;4.78;3.50;;;;;;;;;;5154113;27;20083;-63
2023/06/24 07:44:08;;;;;;;8.75;3.30;;;;;;;;;;5154505;27;20026;-66
2023/06/24 07:46:34;;;;;;;9.27;3.38;;;;;;;;;;5154164;27;20225;-66
2023/06/24 07:49:00;;;;;;;4.97;3.05;;;;;;;;;;5154007;27;20050;-64
2023/06/24 07:51:25;;;;;;;6.38;3.00;;;;;;;;;;5153980;27;20034;-65
2023/06/24 07:53:51;;;;;;;7.80;2.70;;;;;;;;;;5153964;27;20034;-58
2023/06/24 07:56:16;;;;;;;7.22;2.50;;;;;;;;;;5154205;27;20032;-57
2023/06/24 07:58:42;;;;;;;3.05;2.40;;;;;;;;;;5154154;27;20049;-58
2023/06/24 08:01:08;;;;;;;6.20;2.55;;;;;;;;;;5153727;27;20027;-60
2023/06/24 08:03:34;;;;;;;3.92;2.67;;;;;;;;;;5153810;27;20030;-62
2023/06/24 08:05:59;;;;;;;5.20;2.75;;;;;;;;;;5153659;27;20023;-59
2023/06/24 08:08:25;;;;;;;8.18;3.25;;;;;;;;;;5154027;27;20030;-64
2023/06/24 08:10:50;;;;;;;5.18;3.20;;;;;;;;;;5153467;27;20619;-58
2023/06/24 08:13:16;;;;;;;6.47;3.22;;;;;;;;;;5154065;27;20031;-59
2023/06/24 08:15:41;;;;;;;7.47;2.75;;;;;;;;;;5153080;27;20170;-58
2023/06/24 08:18:07;;;;;;;3.78;2.90;;;;;;;;;;5153377;27;20049;-58
2023/06/24 08:20:33;;;;;;;5.10;2.70;;;;;;;;;;5153814;27;20119;-58
2023/06/24 08:22:58;;;;;;;3.70;2.88;;;;;;;;;;5153413;27;20038;-57
2023/06/24 08:25:24;;;;;;;8.18;3.40;;;;;;;;;;5153542;27;20038;-58
2023/06/24 08:27:49;;;;;;;5.38;3.20;;;;;;;;;;5153327;27;20144;-58
2023/06/24 08:30:15;;;;;;;11.05;3.20;;;;;;;;;;5153270;27;20039;-58
2023/06/24 08:32:41;;;;;;;8.57;2.40;;;;;;;;;;5153356;27;20023;-58
2023/06/24 08:35:08;;;;;;;8.57;2.85;;;;;;;;;;5153210;27;20022;-58
2023/06/24 08:37:34;;;;;;;3.00;2.70;;;;;;;;;;5153374;27;20110;-58
2023/06/24 08:40:00;;;;;;;8.50;3.08;;;;;;;;;;5152820;27;20428;-59
2023/06/24 08:42:25;;;;;;;5.30;2.85;;;;;;;;;;5153123;27;20018;-56
2023/06/24 08:44:51;;;;;;;3.88;2.60;;;;;;;;;;5153216;27;20031;-58
2023/06/24 08:47:18;;;;;;;5.95;2.80;;;;;;;;;;5153342;27;20037;-57
2023/06/24 08:49:50;;;;;;;7.15;2.70;;;;;;;;;;5152821;27;20046;-58
2023/06/24 08:52:17;;;;;;;6.60;3.10;;;;;;;;;;5152781;27;20069;-56
2023/06/24 08:54:48;;;;;;;4.07;2.70;;;;;;;;;;5152803;27;20031;-61
2023/06/24 08:57:15;;;;;;;6.57;2.60;;;;;;;;;;5153132;27;20034;-56
2023/06/24 08:59:41;;;;;;;3.83;2.70;;;;;;;;;;5152965;27;20385;-57
2023/06/24 09:02:07;;;;;;;6.45;2.70;;;;;;;;;;5153001;27;20095;-55
2023/06/24 09:04:33;;;;;;;2.53;2.30;;;;;;;;;;5152652;27;20014;-62
2023/06/24 09:06:58;;;;;;;9.52;2.55;;;;;;;;;;5152717;27;20035;-64
2023/06/24 09:09:24;;;;;;;3.75;2.22;;;;;;;;;;5152610;27;20439;-65
2023/06/24 09:11:53;;;;;;;3.10;2.38;;;;;;;;;;5152831;27;20074;-65
2023/06/24 09:14:19;;;;;;;4.07;2.70;;;;;;;;;;5152918;27;20030;-65
2023/06/24 09:16:56;;;;;;;3.70;2.20;;;;;;;;;;5152518;27;20034;-63
2023/06/24 09:19:36;;;;;;;2.58;2.17;;;;;;;;;;5152561;27;20066;-66
2023/06/24 09:22:03;;;;;;;2.63;1.83;;;;;;;;;;5152331;27;20069;-58
2023/06/24 09:24:34;;;;;;;2.78;2.50;;;;;;;;;;5152459;27;20038;-59
2023/06/24 09:26:59;;;;;;;4.00;2.17;;;;;;;;;;5152055;27;20490;-58
2023/06/24 09:29:27;;;;;;;5.50;2.28;;;;;;;;;;5152303;27;20065;-64
2023/06/24 09:31:52;;;;;;;2.55;2.22;;;;;;;;;;5152003;27;20041;-58
2023/06/24 09:34:19;;;;;;;4.95;2.40;;;;;;;;;;5152262;27;20024;-59
2023/06/24 09:36:51;;;;;;;2.83;2.38;;;;;;;;;;5152521;27;20022;-63
2023/06/24 09:39:17;;;;;;;2.30;2.10;;;;;;;;;;5152463;27;20047;-59
2023/06/24 09:41:43;;;;;;;5.15;2.00;;;;;;;;;;5133665;27;20546;-65
2023/06/24 09:44:11;;;;;;;6.35;2.33;;;;;;;;;;5152384;27;20034;-58
2023/06/24 09:46:37;;;;;;;4.30;2.03;;;;;;;;;;5152116;27;20062;-62
2023/06/24 09:49:05;;;;;;;3.63;2.10;;;;;;;;;;5152023;27;20125;-57
2023/06/24 09:51:36;;;;;;;5.78;2.25;;;;;;;;;;5152432;27;20061;-57
2023/06/24 09:54:04;;;;;;;3.20;2.05;;;;;;;;;;5152058;27;20026;-58
2023/06/24 09:56:30;;;;;;;2.70;2.00;;;;;;;;;;5152203;27;20074;-57
2023/06/24 09:58:55;;;;;;;2.78;2.00;;;;;;;;;;5133420;27;20052;-58
2023/06/24 10:01:21;;;;;;;3.35;2.00;;;;;;;;;;5152096;27;20037;-57
2023/06/24 10:03:48;;;;;;;4.72;2.30;;;;;;;;;;5152315;27;20030;-57
2023/06/24 10:06:13;;;;;;;6.10;2.17;;;;;;;;;;5152121;27;20019;-56
2023/06/24 10:08:39;;;;;;;3.25;2.20;;;;;;;;;;5151928;27;20498;-58
2023/06/24 10:11:05;;;;;;;5.68;2.10;;;;;;;;;;5151843;27;20110;-58
2023/06/24 10:13:30;;;;;;;4.72;2.53;;;;;;;;;;5152448;27;20053;-58
2023/06/24 10:15:57;;;;;;;3.60;2.10;;;;;;;;;;5152341;27;20025;-58
2023/06/24 10:18:31;;;;;;;5.53;2.10;;;;;;;;;;5151898;27;20039;-57
2023/06/24 10:20:58;;;;;;;3.25;2.03;;;;;;;;;;5150655;27;20518;-60
2023/06/24 10:23:30;;;;;;;2.92;2.08;;;;;;;;;;5150937;27;20591;-64
2023/06/24 10:25:56;;;;;;;2.42;2.05;;;;;;;;;;5151226;27;20061;-58
2023/06/24 10:28:21;;;;;;;5.07;2.47;;;;;;;;;;5151204;27;20056;-65
2023/06/24 10:30:56;;;;;;;2.95;2.00;;;;;;;;;;5151578;27;20038;-65
2023/06/24 10:33:24;;;;;;;4.57;1.90;;;;;;;;;;5151323;27;20027;-61
2023/06/24 10:35:50;;;;;;;2.65;1.80;;;;;;;;;;5151814;27;20027;-64
2023/06/24 10:38:16;;;;;;;3.97;2.17;;;;;;;;;;5153857;27;20023;-64
2023/06/24 10:40:43;;;;;;;4.25;1.98;;;;;;;;;;5155464;27;20043;-65
2023/06/24 10:43:24;;;;;;;2.10;1.90;;;;;;;;;;5155787;27;20034;-64
2023/06/24 10:45:50;;;;;;;3.75;2.08;;;;;;;;;;5155786;27;20033;-65
2023/06/24 10:48:19;;;;;;;2.60;1.98;;;;;;;;;;5136780;27;20027;-64
2023/06/24 10:50:45;;;;;;;4.15;2.03;;;;;;;;;;5155457;27;20026;-58
2023/06/24 10:53:12;;;;;;;2.30;2.10;;;;;;;;;;5155460;27;20095;-61
2023/06/24 10:55:38;;;;;;;3.90;2.00;;;;;;;;;;5155553;27;20382;-58
2023/06/24 10:58:12;;;;;;;2.30;2.10;;;;;;;;;;5155302;27;20546;-64
2023/06/24 11:00:41;;;;;;;2.45;2.20;;;;;;;;;;5155182;27;20526;-57
2023/06/24 11:03:18;;;;;;;2.45;2.15;;;;;;;;;;5155228;27;20027;-57
2023/06/24 11:05:48;;;;;;;2.10;2.00;;;;;;;;;;5154990;27;20087;-59
2023/06/24 11:08:14;;;;;;;2.78;2.00;;;;;;;;;;5155091;27;20040;-64
2023/06/24 11:10:47;;;;;;;2.65;2.08;;;;;;;;;;5154815;27;20026;-58
2023/06/24 11:13:13;;;;;;;3.72;1.73;;;;;;;;;;5154973;27;20034;-63
2023/06/24 11:15:40;;;;;;;3.33;1.67;;;;;;;;;;5155053;27;20023;-64
2023/06/24 11:18:09;;;;;;;2.00;1.80;;;;;;;;;;5155230;27;20079;-56
2023/06/24 11:20:37;;;;;;;2.45;1.58;;;;;;;;;;5136438;27;20027;-58
2023/06/24 11:23:06;;;;;;;1.88;1.77;;;;;;;;;;5154924;27;20023;-58
2023/06/24 11:25:32;;;;;;;1.70;1.60;;;;;;;;;;5155017;27;20424;-57
2023/06/24 11:27:57;;;;;;;2.03;1.70;;;;;;;;;;5154886;27;20040;-57
2023/06/24 11:30:23;;;;;;;1.98;1.58;;;;;;;;;;5154642;27;20106;-55
2023/06/24 11:32:50;;;;;;;2.17;1.42;;;;;;;;;;5154376;27;20050;-57
2023/06/24 11:35:15;;;;;;;1.52;1.35;;;;;;;;;;5154400;27;20471;-56
2023/06/24 11:37:46;;;;;;;2.20;1.63;;;;;;;;;;5154712;27;20083;-58
2023/06/24 11:40:13;;;;;;;1.50;1.40;;;;;;;;;;5154281;27;20043;-60
2023/06/24 11:42:41;;;;;;;3.97;1.40;;;;;;;;;;5154186;27;20027;-61
2023/06/24 11:45:09;;;;;;;1.80;1.60;;;;;;;;;;5154612;27;20360;-64
2023/06/24 11:47:35;;;;;;;1.48;1.38;;;;;;;;;;5152158;27;20121;-57
2023/06/24 11:50:02;;;;;;;1.58;1.48;;;;;;;;;;5153015;27;20049;-64
2023/06/24 11:52:43;;;;;;;1.50;1.40;;;;;;;;;;5154313;27;20572;-58
2023/06/24 11:55:27;;;;;;;1.48;1.38;;;;;;;;;;5154054;27;20079;-57
2023/06/24 11:57:58;;;;;;;1.55;1.45;;;;;;;;;;5154080;27;20033;-55
2023/06/24 12:00:26;;;;;;;1.27;1.23;;;;;;;;;;5153812;27;20026;-54
2023/06/24 12:03:01;;;;;;;1.50;1.38;;;;;;;;;;5153885;27;20054;-59
2023/06/24 12:05:30;;;;;;;1.42;1.33;;;;;;;;;;5153840;27;20075;-55
2023/06/24 12:08:00;;;;;;;1.23;1.20;;;;;;;;;;5153889;27;20027;-62
2023/06/24 12:10:28;;;;;;;1.40;1.30;;;;;;;;;;5153556;27;20026;-58
2023/06/24 12:12:54;;;;;;;1.50;1.40;;;;;;;;;;5153983;27;20026;-58
2023/06/24 12:15:20;;;;;;;1.85;1.45;;;;;;;;;;5153726;27;20015;-58
2023/06/24 12:17:45;;;;;;;2.25;1.30;;;;;;;;;;5153976;27;20026;-57
2023/06/24 12:20:13;;;;;;;1.60;1.33;;;;;;;;;;5153551;27;20473;-56
2023/06/24 12:22:40;;;;;;;1.33;1.23;;;;;;;;;;5153835;27;20083;-58
2023/06/24 12:25:09;;;;;;;2.25;1.42;;;;;;;;;;5153507;27;20026;-58
2023/06/24 12:27:35;;;;;;;1.77;1.20;;;;;;;;;;5153208;27;20019;-57
2023/06/24 12:30:01;;;;;;;4.07;1.33;;;;;;;;;;5153318;27;20050;-58
2023/06/24 12:32:26;;;;;;;1.15;1.15;;;;;;;;;;5153265;27;20050;-59
2023/06/24 12:34:52;;;;;;;2.15;1.40;;;;;;;;;;5153310;27;20026;-58
2023/06/24 12:37:18;;;;;;;1.30;1.20;;;;;;;;;;5153517;27;20495;-58
2023/06/24 12:39:45;;;;;;;1.20;1.20;;;;;;;;;;5153136;27;20150;-58
2023/06/24 12:42:11;;;;;;;1.10;1.00;;;;;;;;;;5153127;27;20054;-58
2023/06/24 12:44:36;;;;;;;1.30;1.20;;;;;;;;;;5153093;27;20046;-58
2023/06/24 12:47:02;;;;;;;1.08;1.00;;;;;;;;;;5153245;27;20031;-57
2023/06/24 12:49:28;;;;;;;3.97;1.05;;;;;;;;;;5153222;27;20066;-59
2023/06/24 12:51:53;;;;;;;4.63;1.33;;;;;;;;;;5153074;27;20420;-58
2023/06/24 12:54:19;;;;;;;2.28;1.30;;;;;;;;;;5152826;27;20034;-60
2023/06/24 12:56:44;;;;;;;3.75;1.40;;;;;;;;;;5153244;27;20050;-58
2023/06/24 12:59:10;;;;;;;1.85;1.15;;;;;;;;;;5152831;27;20022;-59
2023/06/24 13:01:36;;;;;;;3.40;1.20;;;;;;;;;;5152664;27;20037;-58
2023/06/24 13:04:01;;;;;;;1.30;1.20;;;;;;;;;;5153132;27;20044;-59
2023/06/24 13:06:27;;;;;;;2.35;1.00;;;;;;;;;;5153135;27;20031;-58
2023/06/24 13:08:52;;;;;;;2.70;1.02;;;;;;;;;;5152636;27;20058;-58
2023/06/24 13:11:18;;;;;;;2.17;1.23;;;;;;;;;;5152874;27;20018;-58
2023/06/24 13:13:43;;;;;;;2.58;1.25;;;;;;;;;;5152665;27;20783;-62
2023/06/24 13:16:09;;;;;;;1.77;1.00;;;;;;;;;;5152834;27;20023;-58
2023/06/24 13:18:35;;;;;;;1.80;1.10;;;;;;;;;;5152950;27;20027;-58
2023/06/24 13:21:00;;;;;;;1.40;1.20;;;;;;;;;;5152702;27;20023;-58
2023/06/24 13:23:26;;;;;;;1.25;1.13;;;;;;;;;;5152478;27;20027;-63
2023/06/24 13:25:51;;;;;;;1.33;1.15;;;;;;;;;;5152488;27;20475;-63
2023/06/24 13:28:17;;;;;;;4.72;1.10;;;;;;;;;;5152870;27;20099;-63
2023/06/24 13:30:42;;;;;;;2.25;1.23;;;;;;;;;;5152320;27;20090;-59
2023/06/24 13:33:08;;;;;;;1.17;1.08;;;;;;;;;;5152499;27;20054;-63
2023/06/24 13:35:34;;;;;;;1.77;1.10;;;;;;;;;;5152352;27;20338;-63
2023/06/24 13:37:59;;;;;;;2.30;1.15;;;;;;;;;;5152252;27;20133;-60
2023/06/24 13:40:25;;;;;;;4.00;1.30;;;;;;;;;;5152075;27;20050;-64
2023/06/24 13:42:50;;;;;;;1.30;1.17;;;;;;;;;;5152339;27;20033;-59
2023/06/24 13:45:16;;;;;;;2.88;1.30;;;;;;;;;;5152278;27;20105;-60
2023/06/24 13:47:41;;;;;;;2.50;1.42;;;;;;;;;;5152517;27;20027;-60
2023/06/24 13:50:08;;;;;;;1.73;1.60;;;;;;;;;;5152356;27;20486;-60
2023/06/24 13:52:34;;;;;;;4.85;1.48;;;;;;;;;;5152387;27;20049;-60
2023/06/24 13:55:00;;;;;;;1.50;1.25;;;;;;;;;;5152476;27;20549;-60
2023/06/24 13:57:25;;;;;;;1.52;1.42;;;;;;;;;;5151707;27;20019;-60
2023/06/24 13:59:51;;;;;;;1.63;1.50;;;;;;;;;;5151002;27;20034;-60
2023/06/24 14:02:17;;;;;;;4.28;1.60;;;;;;;;;;5150902;27;20023;-60
2023/06/24 14:04:42;;;;;;;2.03;1.50;;;;;;;;;;5151411;27;20027;-60
2023/06/24 14:07:08;;;;;;;5.78;1.50;;;;;;;;;;5151483;27;20462;-60
2023/06/24 14:09:34;;;;;;;3.67;1.90;;;;;;;;;;5151022;27;20058;-61
2023/06/24 14:12:00;;;;;;;4.57;1.50;;;;;;;;;;5151334;27;20035;-60
2023/06/24 14:14:26;;;;;;;3.75;1.50;;;;;;;;;;5155656;27;20023;-60
2023/06/24 14:16:52;;;;;;;1.83;1.60;;;;;;;;;;5152677;27;20546;-60
2023/06/24 14:19:18;;;;;;;2.10;1.73;;;;;;;;;;5152959;27;20398;-60
2023/06/24 14:21:43;;;;;;;2.13;1.48;;;;;;;;;;5155927;27;20030;-60
2023/06/24 14:24:11;;;;;;;1.70;1.60;;;;;;;;;;5156283;27;20034;-60
2023/06/24 14:26:36;;;;;;;2.42;1.45;;;;;;;;;;5155831;27;20101;-60
2023/06/24 14:29:02;;;;;;;3.80;1.65;;;;;;;;;;5155774;27;20122;-60
2023/06/24 14:31:28;;;;;;;3.13;1.73;;;;;;;;;;5156008;27;20033;-60
2023/06/24 14:33:54;;;;;;;3.05;1.30;;;;;;;;;;5156018;27;20109;-60
2023/06/24 14:36:19;;;;;;;1.60;1.50;;;;;;;;;;5155934;27;20547;-60
2023/06/24 14:38:45;;;;;;;3.72;1.70;;;;;;;;;;5155674;27;20105;-59
2023/06/24 14:41:11;;;;;;;1.75;1.60;;;;;;;;;;5155150;27;20095;-60